createdAt,value
2018-03-19T00:00:47.122Z,17.37
2018-03-19T00:03:14.808Z,16.60
2018-03-19T00:05:42.356Z,18.90
2018-03-19T00:08:09.960Z,18.87
2018-03-19T00:10:37.499Z,16.40
2018-03-19T00:13:05.116Z,15.07
2018-03-19T00:15:32.665Z,14.90
2018-03-19T00:18:00.257Z,14.98
2018-03-19T00:20:27.804Z,15.25
2018-03-19T00:22:55.394Z,17.92
2018-03-19T00:25:22.931Z,17.77
2018-03-19T00:27:50.557Z,15.88
2018-03-19T00:30:18.862Z,15.50
2018-03-19T00:32:46.476Z,16.02
2018-03-19T00:35:14.784Z,16.05
2018-03-19T00:37:42.380Z,15.38
2018-03-19T00:40:09.929Z,16.65
2018-03-19T00:42:37.464Z,15.80
2018-03-19T00:45:05.058Z,15.32
2018-03-19T00:47:32.616Z,16.20
2018-03-19T00:50:00.213Z,12.63
2018-03-19T00:52:28.516Z,18.20
2018-03-19T00:54:56.114Z,16.45
2018-03-19T00:57:23.673Z,17.45
2018-03-19T00:59:51.251Z,16.55
2018-03-19T01:02:18.790Z,16.60
2018-03-19T01:04:46.364Z,17.00
2018-03-19T01:07:13.951Z,14.87
2018-03-19T01:09:42.251Z,16.70
2018-03-19T01:12:09.850Z,14.23
2018-03-19T01:14:37.392Z,13.75
2018-03-19T01:17:04.930Z,14.85
2018-03-19T01:19:32.529Z,14.65
2018-03-19T01:22:00.072Z,16.83
2018-03-19T01:24:27.664Z,14.73
2018-03-19T01:26:55.204Z,15.38
2018-03-19T01:29:22.789Z,16.95
2018-03-19T01:31:50.332Z,17.75
2018-03-19T01:34:17.941Z,19.02
2018-03-19T01:36:46.243Z,16.37
2018-03-19T01:39:13.819Z,15.77
2018-03-19T01:41:41.369Z,16.55
2018-03-19T01:44:08.973Z,15.85
2018-03-19T01:46:36.508Z,17.45
2018-03-19T01:49:04.091Z,14.73
2018-03-19T01:51:31.638Z,15.43
2018-03-19T01:53:59.224Z,17.83
2018-03-19T01:56:27.543Z,13.95
2018-03-19T01:58:55.136Z,17.05
2018-03-19T02:01:22.689Z,16.42
2018-03-19T02:03:50.269Z,15.80
2018-03-19T02:06:17.812Z,17.92
2018-03-19T02:08:45.399Z,17.27
2018-03-19T02:11:13.714Z,16.42
2018-03-19T02:13:41.325Z,16.65
2018-03-19T02:16:08.870Z,16.10
2018-03-19T02:18:36.466Z,14.70
2018-03-19T02:21:04.773Z,15.70
2018-03-19T02:23:32.364Z,16.42
2018-03-19T02:25:59.903Z,14.10
2018-03-19T02:28:27.488Z,12.13
2018-03-19T02:30:55.024Z,16.15
2018-03-19T02:33:22.614Z,15.35
2018-03-19T02:35:50.157Z,16.45
2018-03-19T02:38:17.737Z,15.70
2018-03-19T02:40:45.284Z,15.95
2018-03-19T02:43:12.870Z,15.30
2018-03-19T02:45:41.187Z,14.80
2018-03-19T02:48:08.772Z,16.10
2018-03-19T02:50:36.317Z,14.50
2018-03-19T02:53:03.911Z,12.75
2018-03-19T02:55:31.468Z,13.10
2018-03-19T02:57:59.061Z,14.15
2018-03-19T03:00:27.374Z,15.68
2018-03-19T03:02:54.968Z,16.35
2018-03-19T03:05:22.515Z,16.10
2018-03-19T03:07:50.113Z,16.17
2018-03-19T03:10:18.423Z,14.52
2018-03-19T03:12:46.021Z,16.55
2018-03-19T03:15:13.566Z,17.10
2018-03-19T03:17:41.161Z,15.63
2018-03-19T03:20:09.477Z,15.15
2018-03-19T03:22:37.077Z,17.20
2018-03-19T03:25:04.624Z,17.73
2018-03-19T03:27:32.221Z,15.70
2018-03-19T03:30:00.529Z,17.30
2018-03-19T03:32:28.124Z,14.57
2018-03-19T03:34:55.665Z,16.12
2018-03-19T03:37:23.262Z,14.55
2018-03-19T03:39:50.804Z,16.05
2018-03-19T03:42:18.399Z,14.18
2018-03-19T03:44:46.714Z,13.90
2018-03-19T03:47:14.309Z,13.45
2018-03-19T03:49:41.872Z,14.63
2018-03-19T03:52:09.458Z,15.80
2018-03-19T03:54:37.767Z,14.25
2018-03-19T03:57:05.366Z,15.20
2018-03-19T03:59:32.895Z,15.00
2018-03-19T04:02:00.491Z,16.50
2018-03-19T04:04:28.032Z,16.45
2018-03-19T04:06:55.624Z,13.57
2018-03-19T04:09:23.166Z,16.73
2018-03-19T04:11:52.258Z,14.38
2018-03-19T04:14:19.799Z,14.57
2018-03-19T04:16:47.408Z,16.10
2018-03-19T04:19:15.711Z,15.50
2018-03-19T04:21:43.303Z,11.55
2018-03-19T04:24:10.860Z,14.15
2018-03-19T04:26:38.444Z,13.80
2018-03-19T04:29:05.981Z,11.55
2018-03-19T04:31:33.576Z,15.40
2018-03-19T04:34:01.116Z,15.32
2018-03-19T04:36:28.699Z,14.38
2018-03-19T04:38:56.302Z,14.48
2018-03-19T04:41:23.847Z,15.30
2018-03-19T04:43:51.451Z,13.85
2018-03-19T04:46:19.000Z,15.52
2018-03-19T04:48:46.587Z,13.68
2018-03-19T04:51:14.218Z,11.63
2018-03-19T04:53:41.763Z,14.38
2018-03-19T04:56:09.357Z,14.15
2018-03-19T04:58:36.901Z,13.25
2018-03-19T05:03:53.810Z,14.05
2018-03-19T05:06:21.348Z,15.30
2018-03-19T05:08:49.652Z,13.80
2018-03-19T05:11:17.251Z,13.10
2018-03-19T05:13:45.581Z,14.68
2018-03-19T05:16:13.172Z,12.90
2018-03-19T05:18:40.708Z,14.43
2018-03-19T05:21:08.297Z,16.10
2018-03-19T05:23:35.861Z,16.50
2018-03-19T05:26:03.448Z,14.13
2018-03-19T05:28:31.761Z,13.43
2018-03-19T05:30:59.431Z,13.02
2018-03-19T05:33:26.970Z,13.90
2018-03-19T05:35:54.575Z,14.50
2018-03-19T05:38:22.120Z,14.90
2018-03-19T05:40:49.707Z,13.65
2018-03-19T05:43:17.247Z,14.93
2018-03-19T05:45:44.843Z,14.75
2018-03-19T05:48:13.167Z,13.75
2018-03-19T05:50:40.764Z,13.65
2018-03-19T05:53:08.295Z,14.35
2018-03-19T05:55:35.884Z,15.05
2018-03-19T05:58:03.426Z,13.45
2018-03-19T06:00:31.004Z,12.48
2018-03-19T06:02:58.546Z,14.38
2018-03-19T06:05:26.185Z,14.15
2018-03-19T06:07:53.731Z,16.33
2018-03-19T06:10:21.329Z,14.90
2018-03-19T06:12:48.872Z,13.85
2018-03-19T06:15:16.467Z,13.62
2018-03-19T06:17:44.004Z,15.38
2018-03-19T06:20:11.583Z,14.23
2018-03-19T06:22:39.121Z,14.50
2018-03-19T06:25:06.712Z,14.77
2018-03-19T06:27:35.055Z,13.35
2018-03-19T06:30:02.641Z,16.30
2018-03-19T06:32:30.178Z,14.40
2018-03-19T06:34:57.764Z,13.50
2018-03-19T06:37:25.300Z,14.48
2018-03-19T06:39:52.888Z,15.13
2018-03-19T06:42:20.433Z,15.18
2018-03-19T06:44:48.032Z,13.77
2018-03-19T06:47:15.622Z,12.15
2018-03-19T06:49:43.202Z,13.15
2018-03-19T06:52:10.744Z,12.18
2018-03-19T06:54:38.331Z,13.30
2018-03-19T06:57:05.874Z,14.10
2018-03-19T06:59:33.464Z,14.57
2018-03-19T07:02:00.995Z,15.13
2018-03-19T07:04:28.582Z,14.35
2018-03-19T07:06:56.132Z,14.30
2018-03-19T07:09:23.714Z,14.52
2018-03-19T07:11:52.016Z,13.10
2018-03-19T07:14:19.606Z,14.68
2018-03-19T07:16:47.143Z,13.77
2018-03-19T07:19:14.791Z,15.05
2018-03-19T07:21:42.358Z,13.85
2018-03-19T07:24:09.960Z,15.65
2018-03-19T07:26:37.495Z,12.85
2018-03-19T07:29:05.091Z,15.07
2018-03-19T07:31:32.629Z,11.90
2018-03-19T07:34:00.215Z,14.20
2018-03-19T07:36:27.745Z,15.30
2018-03-19T07:38:55.330Z,13.02
2018-03-19T07:41:22.863Z,14.35
2018-03-19T07:43:50.452Z,14.68
2018-03-19T07:46:18.062Z,14.25
2018-03-19T07:48:45.709Z,14.77
2018-03-19T07:51:13.272Z,14.30
2018-03-19T07:53:40.866Z,15.38
2018-03-19T07:56:08.432Z,14.23
2018-03-19T07:58:36.030Z,15.95
2018-03-19T08:01:04.331Z,14.45
2018-03-19T08:03:31.925Z,15.85
2018-03-19T08:05:59.470Z,13.88
2018-03-19T08:08:27.058Z,14.95
2018-03-19T08:10:54.600Z,14.60
2018-03-19T08:13:22.176Z,15.20
2018-03-19T08:15:49.720Z,15.07
2018-03-19T08:18:17.301Z,15.50
2018-03-19T08:20:44.838Z,14.75
2018-03-19T08:23:12.439Z,14.23
2018-03-19T08:25:40.762Z,14.35
2018-03-19T08:28:08.364Z,15.95
2018-03-19T08:30:35.922Z,14.00
2018-03-19T08:33:03.529Z,14.87
2018-03-19T08:35:31.072Z,14.50
2018-03-19T08:37:59.415Z,15.18
2018-03-19T08:40:26.952Z,14.85
2018-03-19T08:42:54.618Z,15.65
2018-03-19T08:45:22.172Z,13.65
2018-03-19T08:47:49.761Z,15.50
2018-03-19T08:50:17.311Z,15.82
2018-03-19T08:52:44.906Z,13.35
2018-03-19T08:55:13.217Z,15.50
2018-03-19T08:57:40.810Z,15.57
2018-03-19T09:00:08.350Z,15.35
2018-03-19T09:02:35.932Z,15.50
2018-03-19T09:05:03.476Z,15.13
2018-03-19T09:07:31.072Z,13.75
2018-03-19T09:09:58.610Z,15.32
2018-03-19T09:12:26.196Z,14.27
2018-03-19T09:14:54.500Z,14.40
2018-03-19T09:17:22.088Z,15.50
2018-03-19T09:19:49.641Z,15.07
2018-03-19T09:22:17.233Z,16.08
2018-03-19T09:24:44.780Z,15.40
2018-03-19T09:27:12.396Z,14.35
2018-03-19T09:29:39.949Z,14.82
2018-03-19T09:32:08.311Z,15.55
2018-03-19T09:34:36.628Z,16.00
2018-03-19T09:37:04.224Z,14.75
2018-03-19T09:39:31.764Z,14.70
2018-03-19T09:41:59.357Z,17.75
2018-03-19T09:44:27.115Z,16.30
2018-03-19T09:46:54.699Z,16.77
2018-03-19T09:49:22.584Z,14.87
2018-03-19T09:51:50.364Z,15.27
2018-03-19T09:54:18.050Z,14.63
2018-03-19T09:56:45.754Z,15.93
2018-03-19T09:59:14.148Z,15.25
2018-03-19T10:01:42.895Z,17.08
2018-03-19T10:04:10.492Z,18.10
2018-03-19T10:06:38.966Z,16.02
2018-03-19T10:09:07.407Z,14.15
2018-03-19T10:11:34.996Z,15.25
2018-03-19T10:14:03.427Z,15.10
2018-03-19T10:16:31.205Z,17.25
2018-03-19T10:18:58.747Z,15.73
2018-03-19T10:21:26.336Z,17.08
2018-03-19T10:23:53.884Z,14.95
2018-03-19T10:26:21.480Z,16.52
2018-03-19T10:28:49.800Z,17.50
2018-03-19T10:31:17.383Z,17.65
2018-03-19T10:33:44.923Z,15.55
2018-03-19T10:36:12.513Z,19.23
2018-03-19T10:38:40.066Z,15.68
2018-03-19T10:41:07.669Z,16.95
2018-03-19T10:43:35.964Z,17.48
2018-03-19T10:46:03.556Z,17.73
2018-03-19T10:48:31.100Z,17.08
2018-03-19T10:50:58.680Z,20.10
2018-03-19T10:53:26.226Z,19.80
2018-03-19T10:55:53.808Z,21.30
2018-03-19T10:58:21.354Z,21.98
2018-03-19T11:00:48.947Z,19.15
2018-03-19T11:03:22.295Z,17.95
2018-03-19T11:05:49.876Z,17.95
2018-03-19T11:08:23.139Z,16.30
2018-03-19T11:10:51.119Z,18.30
2018-03-19T11:13:18.900Z,17.52
2018-03-19T11:15:46.753Z,17.70
2018-03-19T11:18:14.682Z,17.75
2018-03-19T11:20:42.390Z,18.45
2018-03-19T11:23:09.948Z,17.75
2018-03-19T11:25:37.563Z,18.50
2018-03-19T11:28:05.873Z,18.15
2018-03-19T11:30:33.534Z,19.12
2018-03-19T11:33:01.109Z,18.00
2018-03-19T11:35:28.763Z,19.33
2018-03-19T11:37:56.352Z,18.83
2018-03-19T11:40:23.940Z,19.15
2018-03-19T11:42:52.269Z,19.25
2018-03-19T11:45:19.865Z,19.67
2018-03-19T11:47:47.402Z,18.37
2018-03-19T11:50:15.041Z,21.58
2018-03-19T11:52:42.598Z,17.73
2018-03-19T11:55:10.217Z,17.55
2018-03-19T11:57:38.529Z,18.60
2018-03-19T12:00:06.210Z,18.00
2018-03-19T12:02:33.754Z,17.30
2018-03-19T12:05:01.335Z,17.58
2018-03-19T12:07:28.925Z,18.45
2018-03-19T12:09:56.602Z,18.58
2018-03-19T12:12:25.023Z,17.30
2018-03-19T12:14:52.627Z,17.62
2018-03-19T12:17:20.198Z,18.60
2018-03-19T12:19:47.809Z,18.85
2018-03-19T12:22:15.352Z,19.30
2018-03-19T12:24:42.942Z,18.23
2018-03-19T12:27:11.411Z,18.23
2018-03-19T12:29:39.012Z,18.95
2018-03-19T12:32:06.575Z,17.35
2018-03-19T12:34:34.947Z,17.33
2018-03-19T12:37:02.492Z,18.80
2018-03-19T12:45:41.845Z,17.98
2018-03-19T12:48:09.382Z,17.55
2018-03-19T12:50:36.965Z,18.08
2018-03-19T12:53:04.500Z,17.52
2018-03-19T12:55:32.096Z,18.45
2018-03-19T12:57:59.681Z,16.98
2018-03-19T13:00:27.227Z,17.45
2018-03-19T13:02:54.842Z,17.90
2018-03-19T13:05:22.591Z,18.45
2018-03-19T13:07:50.149Z,17.08
2018-03-19T13:10:17.770Z,17.10
2018-03-19T13:12:45.316Z,18.10
2018-03-19T13:15:12.944Z,16.73
2018-03-19T13:17:40.492Z,16.85
2018-03-19T13:20:08.095Z,16.10
2018-03-19T13:22:35.682Z,16.42
2018-03-19T13:25:03.423Z,16.83
2018-03-19T13:27:31.910Z,16.90
2018-03-19T13:29:59.515Z,18.75
2018-03-19T13:32:28.068Z,15.93
2018-03-19T13:34:55.671Z,17.20
2018-03-19T13:37:23.279Z,17.37
2018-03-19T13:39:50.912Z,16.95
2018-03-19T13:42:18.586Z,17.30
2018-03-19T13:44:46.249Z,19.00
2018-03-19T13:47:13.905Z,15.73
2018-03-19T13:49:41.597Z,16.55
2018-03-19T13:52:09.171Z,17.45
2018-03-19T13:54:36.763Z,17.33
2018-03-19T13:57:04.363Z,16.17
2018-03-19T13:59:32.106Z,16.73
2018-03-19T14:01:59.770Z,15.95
2018-03-19T14:04:27.380Z,17.10
2018-03-19T14:06:54.926Z,18.48
2018-03-19T14:09:23.449Z,17.02
2018-03-19T14:11:51.155Z,15.73
2018-03-19T14:14:19.105Z,15.95
2018-03-19T14:16:46.869Z,16.70
2018-03-19T14:19:14.533Z,17.27
2018-03-19T14:21:42.251Z,16.55
2018-03-19T14:24:10.611Z,16.08
2018-03-19T14:26:38.161Z,16.23
2018-03-19T14:29:05.801Z,16.15
2018-03-19T14:31:33.444Z,18.25
2018-03-19T14:34:01.069Z,17.40
2018-03-19T14:36:29.496Z,17.40
2018-03-19T14:38:57.088Z,16.23
2018-03-19T14:41:24.692Z,16.77
2018-03-19T14:43:52.387Z,16.80
2018-03-19T14:46:19.954Z,17.33
2018-03-19T14:48:47.555Z,18.00
2018-03-19T14:51:15.871Z,17.55
2018-03-19T14:53:43.468Z,17.12
2018-03-19T14:56:11.015Z,17.12
2018-03-19T14:58:38.612Z,18.33
2018-03-19T15:01:06.927Z,18.15
2018-03-19T15:03:34.527Z,17.65
2018-03-19T15:06:02.092Z,16.92
2018-03-19T15:08:29.685Z,17.62
2018-03-19T15:10:57.245Z,17.48
2018-03-19T15:13:24.838Z,18.10
2018-03-19T15:15:52.631Z,19.00
2018-03-19T15:18:20.237Z,16.10
2018-03-19T15:20:47.804Z,17.60
2018-03-19T15:23:15.410Z,17.15
2018-03-19T15:25:42.958Z,15.15
2018-03-19T15:28:10.551Z,16.75
2018-03-19T15:30:38.094Z,16.40
2018-03-19T15:33:05.676Z,15.85
2018-03-19T15:35:33.984Z,16.02
2018-03-19T15:38:01.644Z,16.45
2018-03-19T15:40:29.261Z,16.25
2018-03-19T15:42:56.885Z,13.85
2018-03-19T15:45:24.435Z,16.80
2018-03-19T15:47:52.079Z,17.85
2018-03-19T15:50:19.625Z,16.15
2018-03-19T15:52:47.974Z,15.40
2018-03-19T15:55:15.516Z,16.98
2018-03-19T15:57:43.067Z,16.37
2018-03-19T16:00:10.672Z,16.17
2018-03-19T16:02:39.102Z,14.25
2018-03-19T16:05:06.727Z,17.00
2018-03-19T16:07:35.094Z,17.90
2018-03-19T16:10:03.454Z,15.10
2018-03-19T16:12:31.840Z,15.45
2018-03-19T16:14:59.420Z,16.00
2018-03-19T16:17:27.799Z,17.70
2018-03-19T16:19:56.111Z,16.02
2018-03-19T16:22:23.662Z,14.77
2018-03-19T16:24:51.255Z,16.50
2018-03-19T16:27:18.871Z,17.48
2018-03-19T16:29:46.414Z,15.90
2018-03-19T16:32:14.724Z,16.73
2018-03-19T16:34:42.316Z,16.20
2018-03-19T16:37:09.868Z,16.33
2018-03-19T16:39:38.221Z,16.15
2018-03-19T16:42:05.766Z,16.77
2018-03-19T16:44:33.365Z,16.50
2018-03-19T16:47:00.938Z,15.80
2018-03-19T16:49:28.528Z,16.27
2018-03-19T16:51:56.836Z,17.58
2018-03-19T16:54:24.436Z,17.05
2018-03-19T16:56:51.990Z,15.68
2018-03-19T16:59:19.584Z,16.48
2018-03-19T17:01:47.147Z,14.93
2018-03-19T17:04:15.505Z,15.77
2018-03-19T17:06:43.046Z,18.23
2018-03-19T17:09:10.642Z,17.30
2018-03-19T17:11:39.015Z,18.02
2018-03-19T17:14:06.576Z,17.77
2018-03-19T17:16:35.009Z,16.65
2018-03-19T17:19:02.565Z,18.95
2018-03-19T17:21:30.160Z,18.58
2018-03-19T17:23:57.704Z,18.42
2018-03-19T17:26:25.306Z,17.95
2018-03-19T17:28:53.612Z,17.98
2018-03-19T17:31:21.296Z,17.40
2018-03-19T17:33:48.857Z,16.12
2018-03-19T17:36:16.469Z,18.15
2018-03-19T17:38:44.792Z,18.15
2018-03-19T17:41:12.379Z,16.60
2018-03-19T17:43:39.919Z,16.20
2018-03-19T17:46:07.514Z,21.77
2018-03-19T17:48:35.821Z,17.70
2018-03-19T17:51:03.413Z,17.33
2018-03-19T17:53:30.952Z,18.52
2018-03-19T17:55:58.537Z,18.40
2018-03-19T17:58:26.078Z,18.25
2018-03-19T18:00:53.673Z,17.17
2018-03-19T18:03:21.209Z,17.77
2018-03-19T18:05:48.824Z,17.30
2018-03-19T18:08:17.136Z,17.67
2018-03-19T18:10:44.731Z,16.27
2018-03-19T18:13:12.266Z,19.48
2018-03-19T18:15:39.847Z,18.55
2018-03-19T18:18:07.387Z,16.85
2018-03-19T18:20:35.039Z,17.45
2018-03-19T18:23:02.570Z,18.33
2018-03-19T18:25:30.157Z,18.77
2018-03-19T18:27:57.720Z,17.48
2018-03-19T18:30:25.324Z,18.67
2018-03-19T18:32:52.869Z,18.60
2018-03-19T18:35:20.470Z,17.80
2018-03-19T18:37:48.020Z,19.85
2018-03-19T18:40:16.391Z,17.40
2018-03-19T18:42:44.712Z,17.98
2018-03-19T18:45:12.318Z,19.05
2018-03-19T18:47:41.406Z,19.33
2018-03-19T18:50:09.019Z,18.20
2018-03-19T18:52:36.553Z,19.30
2018-03-19T18:55:04.904Z,18.08
2018-03-19T18:57:32.455Z,19.12
2018-03-19T19:00:00.046Z,18.33
2018-03-19T19:02:28.475Z,19.60
2018-03-19T19:04:56.085Z,17.87
2018-03-19T19:07:24.401Z,17.12
2018-03-19T19:09:52.004Z,18.15
2018-03-19T19:12:19.542Z,19.08
2018-03-19T19:14:47.139Z,18.50
2018-03-19T19:17:15.451Z,20.05
2018-03-19T19:19:43.049Z,17.55
2018-03-19T19:22:10.594Z,19.52
2018-03-19T19:24:38.180Z,18.20
2018-03-19T19:27:05.735Z,18.87
2018-03-19T19:29:34.120Z,20.12
2018-03-19T19:32:01.663Z,19.23
2018-03-19T19:34:29.256Z,21.12
2018-03-19T19:36:57.573Z,25.30
2018-03-19T19:39:25.233Z,26.98
2018-03-19T19:41:52.768Z,22.37
2018-03-19T19:44:20.363Z,21.35
2018-03-19T19:46:47.951Z,20.40
2018-03-19T19:49:15.497Z,21.27
2018-03-19T19:51:43.089Z,20.37
2018-03-19T19:54:10.629Z,20.60
2018-03-19T19:56:38.219Z,21.30
2018-03-19T19:59:06.537Z,20.95
2018-03-19T20:01:34.130Z,22.37
2018-03-19T20:04:01.758Z,21.25
2018-03-19T20:06:29.344Z,21.50
2018-03-19T20:08:56.881Z,20.52
2018-03-19T20:11:24.470Z,20.77
2018-03-19T20:13:52.012Z,22.05
2018-03-19T20:16:19.608Z,21.70
2018-03-19T20:18:47.148Z,23.67
2018-03-19T20:21:14.740Z,20.50
2018-03-19T20:23:43.044Z,21.27
2018-03-19T20:26:10.653Z,21.70
2018-03-19T20:28:38.206Z,21.80
2018-03-19T20:31:05.748Z,20.15
2018-03-19T20:33:33.343Z,22.05
2018-03-19T20:36:00.885Z,20.60
2018-03-19T20:38:28.515Z,21.67
2018-03-19T20:40:56.100Z,21.37
2018-03-19T20:43:23.665Z,20.92
2018-03-19T20:45:51.251Z,21.33
2018-03-19T20:48:19.570Z,23.15
2018-03-19T20:50:47.126Z,22.30
2018-03-19T20:53:14.775Z,22.58
2018-03-19T20:55:42.326Z,20.50
2018-03-19T20:58:09.922Z,19.08
2018-03-19T21:00:37.472Z,20.23
2018-03-19T21:03:05.123Z,19.52
2018-03-19T21:05:32.676Z,18.55
2018-03-19T21:08:00.277Z,20.27
2018-03-19T21:10:27.820Z,19.75
2018-03-19T21:12:55.405Z,21.23
2018-03-19T21:15:22.952Z,21.75
2018-03-19T21:17:50.540Z,20.12
2018-03-19T21:20:18.085Z,19.33
2018-03-19T21:22:45.680Z,19.67
2018-03-19T21:25:13.998Z,20.60
2018-03-19T21:27:41.659Z,19.92
2018-03-19T21:30:09.201Z,19.65
2018-03-19T21:32:36.817Z,19.65
2018-03-19T21:35:05.140Z,19.87
2018-03-19T21:37:32.729Z,19.95
2018-03-19T21:40:00.506Z,20.90
2018-03-19T21:42:28.112Z,21.20
2018-03-19T21:44:55.696Z,22.23
2018-03-19T21:47:23.284Z,21.85
2018-03-19T21:49:50.824Z,21.25
2018-03-19T21:52:18.417Z,20.77
2018-03-19T21:54:45.955Z,22.35
2018-03-19T21:57:13.532Z,22.17
2018-03-19T21:59:41.074Z,22.42
2018-03-19T22:02:08.818Z,21.15
2018-03-19T22:04:36.398Z,22.20
2018-03-19T22:07:03.983Z,20.65
2018-03-19T22:09:32.299Z,21.65
2018-03-19T22:11:59.895Z,22.08
2018-03-19T22:14:27.450Z,20.67
2018-03-19T22:16:55.027Z,19.27
2018-03-19T22:19:22.562Z,19.75
2018-03-19T22:21:50.160Z,21.25
2018-03-19T22:24:17.696Z,22.42
2018-03-19T22:26:45.541Z,21.25
2018-03-19T22:29:13.089Z,22.90
2018-03-19T22:31:40.705Z,20.75
2018-03-19T22:34:08.251Z,20.00
2018-03-19T22:36:35.841Z,20.20
2018-03-19T22:39:04.154Z,20.70
2018-03-19T22:41:31.701Z,18.90
2018-03-19T22:43:59.297Z,17.85
2018-03-19T22:46:26.840Z,18.30
2018-03-19T22:48:54.433Z,19.10
2018-03-19T22:51:21.971Z,18.33
2018-03-19T22:53:49.550Z,19.25
2018-03-19T22:56:17.093Z,18.17
2018-03-19T22:58:44.684Z,19.37
2018-03-19T23:01:12.229Z,19.92
2018-03-19T23:03:39.823Z,20.75
2018-03-19T23:06:08.148Z,21.35
2018-03-19T23:08:35.734Z,21.50
2018-03-19T23:11:03.279Z,20.37
2018-03-19T23:13:30.880Z,23.25
2018-03-19T23:15:59.198Z,21.75
2018-03-19T23:18:26.786Z,22.10
2018-03-19T23:20:55.845Z,20.50
2018-03-19T23:23:23.431Z,21.60
2018-03-19T23:25:50.977Z,22.37
2018-03-19T23:28:18.563Z,23.08
2018-03-19T23:30:46.102Z,22.10
2018-03-19T23:33:13.682Z,21.55
2018-03-19T23:35:41.219Z,21.92
2018-03-19T23:38:08.808Z,20.92
2018-03-19T23:40:36.348Z,22.75
2018-03-19T23:43:03.964Z,21.37
2018-03-19T23:45:31.515Z,20.05
2018-03-19T23:47:59.115Z,21.25
2018-03-19T23:50:26.653Z,23.15
2018-03-19T23:52:54.249Z,21.40
2018-03-19T23:55:21.816Z,22.10
2018-03-19T23:57:49.404Z,22.92
